Time;durP1;ratioP1;P1;durP2;ratioP2;P2;SDS_P1;SDS_P2;PMS_P1;PMS_P2;Temp;Humidity;BMP_temperature;BMP_pressure;BME280_temperature;BME280_humidity;BME280_pressure;Samples;Min_cycle;Max_cycle;Signal;HPM_P1;HPM_P2
2021/05/04 00:02:36;;;;;;;10.27;7.70;;;;;;;;;;10162689;28;20601;-62
2021/05/04 00:07:33;;;;;;;12.37;7.30;;;;;;;;;;10161926;28;20118;-64
2021/05/04 00:12:30;;;;;;;10.30;6.33;;;;;;;;;;10162082;28;20451;-63
2021/05/04 00:17:28;;;;;;;11.27;6.97;;;;;;;;;;10135598;28;20038;-63
2021/05/04 00:22:25;;;;;;;11.60;8.30;;;;;;;;;;10149932;28;20071;-63
2021/05/04 00:27:23;;;;;;;9.97;5.90;;;;;;;;;;10145285;28;20147;-64
2021/05/04 00:32:20;;;;;;;13.17;6.97;;;;;;;;;;10161794;28;20040;-63
2021/05/04 00:37:18;;;;;;;7.90;5.77;;;;;;;;;;10169801;28;20433;-63
2021/05/04 00:42:15;;;;;;;14.33;7.17;;;;;;;;;;10166715;28;20484;-63
2021/05/04 00:47:12;;;;;;;10.73;6.57;;;;;;;;;;10153014;28;20077;-63
2021/05/04 00:52:10;;;;;;;13.07;7.30;;;;;;;;;;10155013;28;20470;-63
2021/05/04 00:57:08;;;;;;;9.20;6.13;;;;;;;;;;10177359;28;20079;-63
2021/05/04 01:02:05;;;;;;;9.68;6.00;;;;;;;;;;10143794;28;20063;-63
2021/05/04 01:07:03;;;;;;;8.07;5.93;;;;;;;;;;10150218;28;20099;-64
2021/05/04 01:12:00;;;;;;;10.47;6.37;;;;;;;;;;10163261;28;20043;-64
2021/05/04 01:16:58;;;;;;;12.67;6.27;;;;;;;;;;10155257;28;20070;-64
2021/05/04 01:21:55;;;;;;;8.47;6.00;;;;;;;;;;10151891;28;20035;-63
2021/05/04 01:26:53;;;;;;;10.80;5.73;;;;;;;;;;10145622;28;20607;-63
2021/05/04 01:31:50;;;;;;;7.77;6.07;;;;;;;;;;10165291;28;20043;-64
2021/05/04 01:36:48;;;;;;;10.13;5.70;;;;;;;;;;10173679;28;20057;-63
2021/05/04 01:41:45;;;;;;;9.23;5.37;;;;;;;;;;10167560;28;20035;-63
2021/05/04 01:46:43;;;;;;;5.90;4.67;;;;;;;;;;10167410;28;20035;-61
2021/05/04 01:51:40;;;;;;;7.40;4.43;;;;;;;;;;10167792;28;20491;-62
2021/05/04 01:56:37;;;;;;;7.77;5.43;;;;;;;;;;10170610;28;20408;-64
2021/05/04 02:01:35;;;;;;;6.80;4.83;;;;;;;;;;10159010;28;20094;-66
2021/05/04 02:06:32;;;;;;;8.07;4.87;;;;;;;;;;10173556;28;20054;-63
2021/05/04 02:11:30;;;;;;;9.27;5.80;;;;;;;;;;10141183;28;20043;-64
2021/05/04 02:16:27;;;;;;;7.50;4.50;;;;;;;;;;10156019;28;20083;-65
2021/05/04 02:21:25;;;;;;;8.97;5.20;;;;;;;;;;10145379;28;20035;-65
2021/05/04 02:26:22;;;;;;;7.77;4.60;;;;;;;;;;10161535;28;20042;-64
2021/05/04 02:31:19;;;;;;;9.80;4.33;;;;;;;;;;10170761;28;20038;-64
2021/05/04 02:36:17;;;;;;;7.63;3.97;;;;;;;;;;10173613;28;20054;-64
2021/05/04 02:41:14;;;;;;;6.33;3.73;;;;;;;;;;10177795;28;20501;-65
2021/05/04 02:46:12;;;;;;;6.47;3.87;;;;;;;;;;10175626;28;20449;-64
2021/05/04 02:51:10;;;;;;;5.90;2.83;;;;;;;;;;10176857;28;20035;-64
2021/05/04 02:56:08;;;;;;;7.03;3.95;;;;;;;;;;10148541;28;20035;-64
2021/05/04 03:01:05;;;;;;;10.20;3.83;;;;;;;;;;10162083;28;20046;-64
2021/05/04 03:06:03;;;;;;;5.20;3.07;;;;;;;;;;10149460;28;20043;-65
2021/05/04 03:11:01;;;;;;;2.95;2.63;;;;;;;;;;10177250;28;20038;-64
2021/05/04 03:15:59;;;;;;;4.47;3.03;;;;;;;;;;10180332;28;20034;-64
2021/05/04 03:20:56;;;;;;;4.30;2.92;;;;;;;;;;10170785;28;20143;-65
2021/05/04 03:25:54;;;;;;;6.40;3.23;;;;;;;;;;10162507;28;20049;-65
2021/05/04 03:30:52;;;;;;;3.57;2.63;;;;;;;;;;10176919;28;20034;-65
2021/05/04 03:35:49;;;;;;;8.20;3.23;;;;;;;;;;10156232;28;20043;-63
2021/05/04 03:40:46;;;;;;;5.73;3.40;;;;;;;;;;10156520;28;20571;-64
2021/05/04 03:45:44;;;;;;;3.33;2.77;;;;;;;;;;10179000;28;20031;-65
2021/05/04 03:50:42;;;;;;;4.43;3.27;;;;;;;;;;10162071;28;20031;-65
2021/05/04 03:55:39;;;;;;;4.20;2.73;;;;;;;;;;10167020;28;20042;-66
2021/05/04 04:00:36;;;;;;;3.27;2.60;;;;;;;;;;10162621;28;20575;-65
2021/05/04 04:05:34;;;;;;;3.20;2.90;;;;;;;;;;10166512;28;20520;-63
2021/05/04 04:10:31;;;;;;;8.40;3.87;;;;;;;;;;10136068;28;20328;-65
2021/05/04 04:15:29;;;;;;;6.00;4.10;;;;;;;;;;10160010;28;20131;-63
2021/05/04 04:20:26;;;;;;;5.93;4.57;;;;;;;;;;10154004;28;20035;-64
2021/05/04 04:25:24;;;;;;;5.27;3.80;;;;;;;;;;10155015;28;20478;-64
2021/05/04 04:30:24;;;;;;;8.00;4.43;;;;;;;;;;10147613;28;20054;-65
2021/05/04 04:35:22;;;;;;;6.47;4.03;;;;;;;;;;10152782;28;20115;-64
2021/05/04 04:40:19;;;;;;;6.57;4.30;;;;;;;;;;10141852;28;20508;-65
2021/05/04 04:45:16;;;;;;;4.33;3.53;;;;;;;;;;10159862;28;20118;-63
2021/05/04 04:50:14;;;;;;;4.27;3.00;;;;;;;;;;10156304;28;20039;-64
2021/05/04 04:55:11;;;;;;;7.97;3.87;;;;;;;;;;10174882;28;20397;-64
2021/05/04 05:00:09;;;;;;;5.73;3.47;;;;;;;;;;10161194;28;20052;-64
2021/05/04 05:05:07;;;;;;;4.17;2.97;;;;;;;;;;10165593;28;20036;-64
2021/05/04 05:10:05;;;;;;;5.13;3.25;;;;;;;;;;10139005;28;20114;-63
2021/05/04 05:15:03;;;;;;;3.90;2.63;;;;;;;;;;10161385;28;20992;-64
2021/05/04 05:20:00;;;;;;;3.97;2.63;;;;;;;;;;10152231;28;20520;-63
2021/05/04 05:24:58;;;;;;;3.17;2.53;;;;;;;;;;10135159;28;20447;-64
2021/05/04 05:29:56;;;;;;;4.15;2.65;;;;;;;;;;10155779;28;20043;-64
2021/05/04 05:34:55;;;;;;;4.53;2.80;;;;;;;;;;10148548;28;20599;-64
2021/05/04 05:39:53;;;;;;;5.47;2.15;;;;;;;;;;10127963;28;20039;-65
2021/05/04 05:44:50;;;;;;;2.03;1.50;;;;;;;;;;10152140;28;20050;-64
2021/05/04 05:49:48;;;;;;;1.83;1.73;;;;;;;;;;10159576;28;20135;-63
2021/05/04 05:54:45;;;;;;;2.87;2.10;;;;;;;;;;10139581;28;20122;-64
2021/05/04 05:59:42;;;;;;;6.23;3.70;;;;;;;;;;10167984;28;20043;-64
2021/05/04 06:04:40;;;;;;;4.90;3.10;;;;;;;;;;10164142;28;20641;-64
2021/05/04 06:09:39;;;;;;;2.77;2.30;;;;;;;;;;10168467;28;20042;-64
2021/05/04 06:14:36;;;;;;;4.10;2.55;;;;;;;;;;10152587;28;20034;-65
2021/05/04 06:19:34;;;;;;;3.37;1.90;;;;;;;;;;10162320;28;20524;-65
2021/05/04 06:24:31;;;;;;;2.80;1.53;;;;;;;;;;10135380;28;20031;-65
2021/05/04 06:29:29;;;;;;;4.23;2.20;;;;;;;;;;10126636;28;20126;-65
2021/05/04 06:34:26;;;;;;;5.67;1.87;;;;;;;;;;10157513;28;20557;-63
2021/05/04 06:39:24;;;;;;;6.70;2.43;;;;;;;;;;10155213;28;20416;-63
2021/05/04 06:44:21;;;;;;;3.30;2.07;;;;;;;;;;10141039;28;20042;-66
2021/05/04 06:49:19;;;;;;;4.17;2.10;;;;;;;;;;10159200;28;20023;-65
2021/05/04 06:54:16;;;;;;;2.63;2.30;;;;;;;;;;10156111;28;20089;-65
2021/05/04 06:59:14;;;;;;;5.37;2.40;;;;;;;;;;10153759;28;20043;-65
2021/05/04 07:04:13;;;;;;;3.23;2.03;;;;;;;;;;10152842;28;20042;-65
2021/05/04 07:09:11;;;;;;;3.00;1.90;;;;;;;;;;10148463;28;20105;-65
2021/05/04 07:14:08;;;;;;;3.50;2.27;;;;;;;;;;10142226;28;20025;-66
2021/05/04 07:19:06;;;;;;;2.97;2.20;;;;;;;;;;10136783;28;20030;-64
2021/05/04 07:24:03;;;;;;;5.40;2.97;;;;;;;;;;10150673;28;20034;-66
2021/05/04 07:29:01;;;;;;;2.33;2.13;;;;;;;;;;10158522;28;20547;-64
2021/05/04 07:33:59;;;;;;;2.93;2.20;;;;;;;;;;10157831;28;20034;-65
2021/05/04 07:38:57;;;;;;;3.37;2.13;;;;;;;;;;10159944;28;20049;-64
2021/05/04 07:43:54;;;;;;;3.20;2.33;;;;;;;;;;10144095;28;20732;-65
2021/05/04 07:48:54;;;;;;;2.07;1.87;;;;;;;;;;10151609;28;20089;-65
2021/05/04 07:53:51;;;;;;;2.42;2.22;;;;;;;;;;10161248;28;20039;-64
2021/05/04 07:58:48;;;;;;;2.00;1.90;;;;;;;;;;10157242;28;20031;-66
2021/05/04 08:03:46;;;;;;;3.17;2.13;;;;;;;;;;10153499;28;20027;-66
2021/05/04 08:08:43;;;;;;;3.47;2.37;;;;;;;;;;10116727;28;20043;-66
2021/05/04 08:13:41;;;;;;;2.43;1.77;;;;;;;;;;10147860;28;20043;-66
2021/05/04 08:18:39;;;;;;;2.73;2.00;;;;;;;;;;10157635;28;20046;-66
2021/05/04 08:23:36;;;;;;;2.60;1.92;;;;;;;;;;10150857;28;20542;-66
2021/05/04 08:28:33;;;;;;;4.03;1.77;;;;;;;;;;10159050;28;20034;-65
2021/05/04 08:33:31;;;;;;;2.10;1.80;;;;;;;;;;10141956;28;20050;-66
2021/05/04 08:38:28;;;;;;;1.87;1.60;;;;;;;;;;10158488;28;20054;-65
2021/05/04 08:43:26;;;;;;;4.57;2.20;;;;;;;;;;10149221;28;20043;-66
2021/05/04 08:48:25;;;;;;;2.50;1.92;;;;;;;;;;10158300;28;20170;-67
2021/05/04 08:53:22;;;;;;;3.42;2.22;;;;;;;;;;10156688;28;20501;-69
2021/05/04 08:58:21;;;;;;;7.23;2.07;;;;;;;;;;10164790;28;20031;-67
2021/05/04 09:03:25;;;;;;;3.22;1.52;;;;;;;;;;10158032;28;20061;-66
2021/05/04 09:08:39;;;;;;;2.70;1.52;;;;;;;;;;10167414;28;20063;-65
2021/05/04 09:13:47;;;;;;;3.42;1.50;;;;;;;;;;10144300;28;20043;-66
2021/05/04 09:23:43;;;;;;;2.97;1.20;;;;;;;;;;10162837;28;20071;-68
2021/05/04 09:28:50;;;;;;;1.35;1.10;;;;;;;;;;10152791;28;20047;-65
2021/05/04 09:33:48;;;;;;;2.95;1.30;;;;;;;;;;10155899;28;20759;-66
2021/05/04 09:38:45;;;;;;;6.33;1.40;;;;;;;;;;10151383;28;20110;-67
2021/05/04 09:43:42;;;;;;;3.90;1.20;;;;;;;;;;10127211;28;20034;-67
2021/05/04 09:48:42;;;;;;;3.50;1.07;;;;;;;;;;10152316;28;20293;-67
2021/05/04 09:53:59;;;;;;;1.77;0.88;;;;;;;;;;10138044;28;20598;-64
2021/05/04 09:58:56;;;;;;;1.95;0.77;;;;;;;;;;10156196;28;20034;-65
2021/05/04 10:03:54;;;;;;;4.17;0.97;;;;;;;;;;10160253;28;20034;-66
2021/05/04 10:08:51;;;;;;;2.47;0.90;;;;;;;;;;10166350;28;20031;-64
2021/05/04 10:13:52;;;;;;;2.07;0.80;;;;;;;;;;10162170;28;20043;-66
2021/05/04 10:18:56;;;;;;;0.60;0.60;;;;;;;;;;10164297;28;20042;-64
2021/05/04 10:23:54;;;;;;;4.78;0.65;;;;;;;;;;10169087;28;20034;-66
2021/05/04 10:29:02;;;;;;;3.30;1.00;;;;;;;;;;10156486;28;20031;-64
2021/05/04 10:34:18;;;;;;;3.53;0.60;;;;;;;;;;10153279;28;20039;-63
2021/05/04 10:39:31;;;;;;;4.50;1.13;;;;;;;;;;10162265;28;20047;-64
2021/05/04 10:44:29;;;;;;;3.65;1.50;;;;;;;;;;10145855;28;20046;-64
2021/05/04 10:49:45;;;;;;;2.80;0.83;;;;;;;;;;10150039;28;20046;-65
2021/05/04 10:54:52;;;;;;;4.45;1.00;;;;;;;;;;10162916;28;20109;-66
2021/05/04 10:59:51;;;;;;;2.97;1.00;;;;;;;;;;10157775;28;20097;-65
2021/05/04 11:04:49;;;;;;;6.15;1.10;;;;;;;;;;10135592;28;20141;-65
2021/05/04 11:10:06;;;;;;;5.33;0.70;;;;;;;;;;10162627;28;20174;-64
2021/05/04 11:15:22;;;;;;;3.92;0.95;;;;;;;;;;10159415;28;20039;-64
2021/05/04 11:20:36;;;;;;;1.75;0.52;;;;;;;;;;10169213;28;20385;-61
2021/05/04 11:25:35;;;;;;;4.60;0.88;;;;;;;;;;10159034;28;20649;-63
2021/05/04 11:30:32;;;;;;;;;;;;;;;;;;10171602;28;20043;-62
2021/05/04 11:35:36;;;;;;;1.17;0.60;;;;;;;;;;10149001;28;19914;-63
2021/05/04 11:40:34;;;;;;;3.75;0.60;;;;;;;;;;10164085;28;20527;-65
2021/05/04 11:45:32;;;;;;;2.27;0.60;;;;;;;;;;10150088;28;20121;-63
2021/05/04 11:50:31;;;;;;;0.40;0.40;;;;;;;;;;10161111;28;20157;-62
2021/05/04 11:55:30;;;;;;;0.63;0.47;;;;;;;;;;10155968;28;20145;-62
2021/05/04 12:00:29;;;;;;;1.80;0.20;;;;;;;;;;10160542;28;20031;-65
2021/05/04 12:05:28;;;;;;;0.70;0.40;;;;;;;;;;10161804;28;20047;-62
2021/05/04 12:10:46;;;;;;;4.65;0.98;;;;;;;;;;10141833;28;20379;-62
2021/05/04 12:15:44;;;;;;;2.10;0.82;;;;;;;;;;10162414;28;20041;-64
2021/05/04 12:20:42;;;;;;;4.90;1.17;;;;;;;;;;10172755;28;20043;-62
2021/05/04 12:25:55;;;;;;;3.85;0.77;;;;;;;;;;10164389;28;20678;-63
2021/05/04 12:31:00;;;;;;;5.68;1.20;;;;;;;;;;10163945;28;20576;-63
2021/05/04 12:36:21;;;;;;;6.10;1.45;;;;;;;;;;10160865;28;20035;-61
2021/05/04 12:41:17;;;;;;;1.35;0.43;;;;;;;;;;10163169;28;20049;-62
2021/05/04 12:46:24;;;;;;;7.53;1.55;;;;;;;;;;10147532;28;20050;-62
2021/05/04 12:51:26;;;;;;;6.78;1.67;;;;;;;;;;10158334;28;20364;-64
2021/05/04 12:56:30;;;;;;;9.05;2.38;;;;;;;;;;10153782;28;20046;-62
2021/05/04 13:01:36;;;;;;;5.80;1.48;;;;;;;;;;10153303;28;20504;-63
2021/05/04 13:06:41;;;;;;;2.30;0.60;;;;;;;;;;10164912;28;20043;-61
2021/05/04 13:33:12;;;;;;;1.35;0.50;;;;;;;;;;10145690;28;20464;-63
2021/05/04 13:38:26;;;;;;;0.82;0.35;;;;;;;;;;10154531;28;20105;-60
2021/05/04 13:48:40;;;;;;;2.13;0.70;;;;;;;;;;10163759;28;20126;-62
2021/05/04 13:53:37;;;;;;;2.20;0.70;;;;;;;;;;10165231;28;20122;-60
2021/05/04 13:58:34;;;;;;;0.73;0.70;;;;;;;;;;10154133;28;20201;-62
2021/05/04 14:29:36;;;;;;;1.90;0.40;;;;;;;;;;10144482;28;20081;-64
2021/05/04 14:34:35;;;;;;;1.40;0.50;;;;;;;;;;10144660;28;20050;-64
2021/05/04 15:05:24;;;;;;;7.43;2.45;;;;;;;;;;10140358;28;20070;-63
2021/05/04 15:10:22;;;;;;;91.32;18.30;;;;;;;;;;10140990;28;20035;-64
2021/05/04 15:25:33;;;;;;;25.55;5.43;;;;;;;;;;10153056;28;20086;-64
2021/05/04 15:30:30;;;;;;;8.63;2.20;;;;;;;;;;10160128;28;21450;-63
2021/05/04 15:35:32;;;;;;;7.03;2.13;;;;;;;;;;10134773;28;20042;-64
2021/05/04 15:40:29;;;;;;;5.60;1.30;;;;;;;;;;10146670;28;20045;-64
2021/05/04 15:45:27;;;;;;;6.07;2.37;;;;;;;;;;10139709;28;20408;-63
2021/05/04 16:11:23;;;;;;;2.28;0.80;;;;;;;;;;10138861;28;20035;-63
2021/05/04 16:16:21;;;;;;;3.57;0.83;;;;;;;;;;10138403;28;20035;-63
2021/05/04 16:21:30;;;;;;;1.57;0.73;;;;;;;;;;10159672;28;20039;-62
2021/05/04 16:27:18;;;;;;;5.03;0.70;;;;;;;;;;10140735;28;20031;-63
2021/05/04 16:31:45;;;;;;;1.27;0.40;;;;;;;;;;10148753;28;20129;-62
2021/05/04 16:36:42;;;;;;;0.50;0.40;;;;;;;;;;10153944;28;20126;-63
2021/05/04 16:41:39;;;;;;;1.83;0.80;;;;;;;;;;10149665;28;20826;-61
2021/05/04 16:51:54;;;;;;;2.45;0.68;;;;;;;;;;10159657;28;20043;-62
2021/05/04 16:56:51;;;;;;;0.95;0.63;;;;;;;;;;10159202;28;20066;-63
2021/05/04 17:01:49;;;;;;;3.90;1.23;;;;;;;;;;10159287;28;20454;-62
2021/05/04 17:11:43;;;;;;;4.30;1.63;;;;;;;;;;10156020;28;20408;-62
2021/05/04 17:16:41;;;;;;;3.53;1.47;;;;;;;;;;10134156;28;20053;-63
2021/05/04 17:21:39;;;;;;;7.50;1.90;;;;;;;;;;10158420;28;20031;-63
2021/05/04 17:26:36;;;;;;;5.43;0.97;;;;;;;;;;10153975;28;20508;-63
2021/05/04 17:31:34;;;;;;;4.13;0.80;;;;;;;;;;10151767;28;20126;-61
2021/05/04 17:36:31;;;;;;;4.00;1.67;;;;;;;;;;10143968;28;20124;-62
2021/05/04 17:41:28;;;;;;;2.67;1.20;;;;;;;;;;10164100;28;20442;-61
2021/05/04 17:46:26;;;;;;;0.70;0.70;;;;;;;;;;10146498;28;20023;-60
2021/05/04 17:51:23;;;;;;;4.43;1.10;;;;;;;;;;10139440;28;20061;-61
2021/05/04 17:56:21;;;;;;;4.83;1.27;;;;;;;;;;10151372;28;20031;-62
2021/05/04 18:01:18;;;;;;;2.00;0.83;;;;;;;;;;10152417;28;20559;-63
2021/05/04 18:06:22;;;;;;;4.13;1.10;;;;;;;;;;10143704;28;20031;-62
2021/05/04 18:11:19;;;;;;;3.28;1.17;;;;;;;;;;10164727;28;20497;-65
2021/05/04 18:21:33;;;;;;;2.15;0.85;;;;;;;;;;10146671;28;20027;-61
2021/05/04 18:26:30;;;;;;;2.30;1.00;;;;;;;;;;10137983;28;20039;-65
2021/05/04 18:31:31;;;;;;;6.63;1.30;;;;;;;;;;10153272;28;20038;-64
2021/05/04 18:36:43;;;;;;;3.65;1.27;;;;;;;;;;10169813;28;20039;-62
2021/05/04 18:42:18;;;;;;;4.55;1.35;;;;;;;;;;10147663;28;21333;-62
2021/05/04 19:18:35;;;;;;;4.55;1.40;;;;;;;;;;10156409;28;20456;-62
2021/05/04 20:15:34;;;;;;;8.60;2.05;;;;;;;;;;10133968;28;20492;-61
2021/05/04 20:20:42;;;;;;;9.97;2.33;;;;;;;;;;10163735;28;20069;-62
2021/05/04 20:25:39;;;;;;;4.03;1.37;;;;;;;;;;10163256;28;20050;-64
2021/05/04 20:30:37;;;;;;;5.33;1.43;;;;;;;;;;10166058;28;20130;-61
2021/05/04 20:35:36;;;;;;;4.77;1.57;;;;;;;;;;10123902;28;20296;-64
2021/05/04 20:40:35;;;;;;;8.85;1.27;;;;;;;;;;10143106;28;20041;-62
2021/05/04 20:45:33;;;;;;;10.23;2.15;;;;;;;;;;10169541;28;20035;-63
2021/05/04 20:50:30;;;;;;;6.83;0.70;;;;;;;;;;10168034;28;20041;-61
2021/05/04 20:55:28;;;;;;;5.50;1.43;;;;;;;;;;10171796;28;20039;-62
2021/05/04 21:00:26;;;;;;;3.80;0.63;;;;;;;;;;10175572;28;20501;-60
2021/05/04 21:05:23;;;;;;;6.47;1.07;;;;;;;;;;10164781;28;20038;-63
2021/05/04 21:15:22;;;;;;;5.53;1.23;;;;;;;;;;10167652;28;20557;-62
2021/05/04 21:30:14;;;;;;;5.57;1.30;;;;;;;;;;10169118;28;20727;-63
2021/05/04 21:35:20;;;;;;;4.23;1.07;;;;;;;;;;10174146;28;20034;-62
2021/05/04 21:40:18;;;;;;;8.95;1.98;;;;;;;;;;10171488;28;20472;-59
2021/05/04 21:45:16;;;;;;;6.67;1.57;;;;;;;;;;10174932;28;20061;-63
2021/05/04 21:50:14;;;;;;;6.00;1.30;;;;;;;;;;10169148;28;20041;-63
2021/05/04 21:55:12;;;;;;;4.20;1.42;;;;;;;;;;10170398;28;20031;-62
2021/05/04 22:00:16;;;;;;;4.72;0.93;;;;;;;;;;10170637;28;20046;-63
2021/05/04 22:05:14;;;;;;;5.35;1.30;;;;;;;;;;10163628;28;20547;-62
2021/05/04 22:10:28;;;;;;;5.47;1.10;;;;;;;;;;10166030;28;20138;-63
2021/05/04 22:36:22;;;;;;;8.15;1.20;;;;;;;;;;10139371;28;20027;-62
2021/05/04 22:41:30;;;;;;;13.00;1.70;;;;;;;;;;10174308;28;20151;-61
2021/05/04 22:46:55;;;;;;;6.50;1.50;;;;;;;;;;10145471;28;20049;-62
2021/05/04 23:18:21;;;;;;;1.50;1.20;;;;;;;;;;10130542;28;20038;-63
2021/05/04 23:23:19;;;;;;;5.50;1.25;;;;;;;;;;10167253;28;20059;-64
2021/05/04 23:28:17;;;;;;;4.93;1.10;;;;;;;;;;10168446;28;20552;-64
2021/05/04 23:33:16;;;;;;;3.53;1.03;;;;;;;;;;10160170;28;20051;-62
2021/05/04 23:38:13;;;;;;;7.57;1.63;;;;;;;;;;10170059;28;20031;-63
2021/05/04 23:43:11;;;;;;;5.60;0.70;;;;;;;;;;10159456;28;20030;-60
2021/05/04 23:48:08;;;;;;;2.67;1.20;;;;;;;;;;10165564;28;20035;-62
2021/05/04 23:53:06;;;;;;;1.27;0.57;;;;;;;;;;10155443;28;20053;-62
2021/05/04 23:58:03;;;;;;;2.50;0.90;;;;;;;;;;10160765;28;20047;-59
